createdAt,value
2022-07-30T00:02:52.257Z,16.88
2022-07-30T00:07:56.075Z,16.97
2022-07-30T00:12:59.813Z,16.97
2022-07-30T00:18:03.068Z,17.02
2022-07-30T00:23:06.735Z,17.06
2022-07-30T00:28:10.677Z,17.19
2022-07-30T00:33:14.274Z,17.10
2022-07-30T00:38:18.149Z,17.09
2022-07-30T00:43:22.473Z,17.19
2022-07-30T00:48:26.624Z,17.28
2022-07-30T00:53:30.380Z,17.27
2022-07-30T00:58:34.303Z,17.28
2022-07-30T01:03:37.787Z,17.35
2022-07-30T01:08:43.181Z,17.38
2022-07-30T01:13:47.878Z,17.32
2022-07-30T01:19:09.140Z,17.16
2022-07-30T01:24:13.112Z,17.26
2022-07-30T01:29:20.901Z,17.24
2022-07-30T01:34:31.092Z,17.18
2022-07-30T01:39:54.132Z,17.16
2022-07-30T01:45:17.966Z,17.08
2022-07-30T01:50:21.691Z,17.20
2022-07-30T01:55:26.272Z,17.06
2022-07-30T02:00:31.373Z,17.16
2022-07-30T02:05:35.800Z,17.04
2022-07-30T02:10:40.233Z,16.93
2022-07-30T02:15:43.710Z,16.99
2022-07-30T02:20:48.738Z,16.95
2022-07-30T02:25:53.937Z,16.84
2022-07-30T02:30:58.364Z,16.70
2022-07-30T02:36:02.085Z,16.66
2022-07-30T02:41:06.090Z,16.57
2022-07-30T02:46:14.122Z,16.46
2022-07-30T02:51:17.748Z,16.36
2022-07-30T02:56:21.019Z,16.38
2022-07-30T03:01:24.677Z,16.46
2022-07-30T03:06:27.941Z,16.60
2022-07-30T03:11:31.188Z,16.77
2022-07-30T03:16:34.692Z,16.75
2022-07-30T03:21:40.633Z,16.77
2022-07-30T03:26:43.884Z,16.77
2022-07-30T03:31:48.577Z,16.78
2022-07-30T03:36:52.247Z,16.69
2022-07-30T03:41:56.643Z,16.75
2022-07-30T03:47:02.218Z,16.70
2022-07-30T03:52:05.707Z,16.66
2022-07-30T03:57:09.231Z,16.55
2022-07-30T04:02:12.856Z,16.56
2022-07-30T04:07:16.900Z,16.52
2022-07-30T04:12:20.438Z,16.53
2022-07-30T04:17:24.911Z,16.65
2022-07-30T04:22:28.408Z,16.71
2022-07-30T04:27:31.696Z,16.77
2022-07-30T04:32:35.821Z,16.94
2022-07-30T04:37:39.429Z,17.07
2022-07-30T04:42:43.131Z,17.21
2022-07-30T04:47:47.299Z,17.40
2022-07-30T04:52:50.756Z,17.48
2022-07-30T04:57:54.287Z,17.62
2022-07-30T05:02:57.816Z,17.83
2022-07-30T05:08:02.693Z,18.03
2022-07-30T05:13:07.953Z,18.13
2022-07-30T05:18:13.771Z,18.32
2022-07-30T05:23:18.594Z,17.99
2022-07-30T05:28:22.354Z,18.13
2022-07-30T05:33:40.897Z,18.32
2022-07-30T05:38:46.693Z,18.72
2022-07-30T05:43:56.003Z,18.73
2022-07-30T05:49:00.410Z,18.82
2022-07-30T05:54:04.672Z,18.68
2022-07-30T05:59:08.126Z,18.69
2022-07-30T06:04:11.849Z,18.78
2022-07-30T06:09:15.421Z,18.88
2022-07-30T06:14:18.677Z,19.09
2022-07-30T06:19:22.286Z,19.23
2022-07-30T06:24:25.585Z,19.57
2022-07-30T06:29:32.638Z,19.56
2022-07-30T06:34:36.140Z,19.38
2022-07-30T06:39:56.161Z,18.20
2022-07-30T06:45:02.444Z,18.06
2022-07-30T06:50:05.772Z,17.99
2022-07-30T06:55:09.060Z,17.94
2022-07-30T07:00:15.514Z,18.03
2022-07-30T07:05:21.689Z,18.93
2022-07-30T07:10:25.529Z,19.19
2022-07-30T07:15:36.929Z,19.48
2022-07-30T07:20:43.453Z,19.67
2022-07-30T07:25:47.520Z,20.70
2022-07-30T07:30:51.175Z,20.92
2022-07-30T07:35:55.245Z,21.36
2022-07-30T07:40:58.490Z,21.73
2022-07-30T07:46:02.293Z,21.33
2022-07-30T07:51:09.621Z,21.41
2022-07-30T07:56:14.108Z,21.14
2022-07-30T08:01:17.785Z,21.59
2022-07-30T08:06:21.246Z,21.86
2022-07-30T08:11:24.935Z,21.69
2022-07-30T08:16:28.450Z,22.46
2022-07-30T08:21:31.359Z,22.25
2022-07-30T08:26:34.918Z,22.45
2022-07-30T08:31:38.174Z,22.23
2022-07-30T08:36:41.457Z,21.73
2022-07-30T08:41:45.050Z,22.47
2022-07-30T08:46:48.345Z,23.02
2022-07-30T08:51:54.454Z,23.04
2022-07-30T08:56:58.746Z,23.68
2022-07-30T09:02:02.229Z,24.09
2022-07-30T09:07:06.554Z,24.40
2022-07-30T09:12:11.426Z,24.08
2022-07-30T09:17:14.673Z,23.42
2022-07-30T09:22:18.742Z,24.47
2022-07-30T09:27:21.967Z,24.81
2022-07-30T09:32:25.339Z,23.70
2022-07-30T09:37:28.905Z,23.77
2022-07-30T09:42:32.477Z,24.14
2022-07-30T09:47:36.215Z,23.96
2022-07-30T09:52:43.822Z,24.17
2022-07-30T09:57:49.483Z,23.98
2022-07-30T10:02:53.959Z,24.08
2022-07-30T10:07:57.327Z,24.57
2022-07-30T10:13:04.542Z,23.72
2022-07-30T10:18:08.350Z,23.63
2022-07-30T10:23:15.931Z,24.27
2022-07-30T10:28:19.764Z,24.01
2022-07-30T10:33:35.158Z,23.82
2022-07-30T10:38:41.833Z,24.83
2022-07-30T10:43:47.229Z,24.93
2022-07-30T10:48:51.493Z,24.79
2022-07-30T10:53:56.212Z,25.00
2022-07-30T10:58:59.508Z,25.94
2022-07-30T11:04:06.649Z,26.81
2022-07-30T11:09:10.040Z,26.46
2022-07-30T11:14:14.967Z,26.90
2022-07-30T11:19:56.584Z,26.47
2022-07-30T11:24:48.962Z,26.46
2022-07-30T11:29:52.387Z,25.90
2022-07-30T11:34:58.722Z,26.07
2022-07-30T11:40:02.274Z,26.25
2022-07-30T11:45:05.701Z,25.87
2022-07-30T11:50:09.165Z,25.56
2022-07-30T11:55:13.457Z,25.28
2022-07-30T12:00:18.718Z,25.55
2022-07-30T12:05:22.103Z,25.58
2022-07-30T12:10:27.128Z,25.69
2022-07-30T12:15:31.416Z,25.97
2022-07-30T12:20:35.100Z,25.81
2022-07-30T12:25:38.352Z,25.43
2022-07-30T12:30:51.549Z,25.14
2022-07-30T12:35:55.424Z,24.33
2022-07-30T12:40:59.849Z,24.56
2022-07-30T12:46:03.534Z,24.75
2022-07-30T12:51:08.169Z,25.08
2022-07-30T12:56:11.958Z,24.98
2022-07-30T13:01:15.301Z,25.54
2022-07-30T13:06:19.282Z,25.68
2022-07-30T13:11:24.069Z,25.96
2022-07-30T13:16:28.156Z,25.90
2022-07-30T13:21:31.821Z,26.18
2022-07-30T13:26:36.719Z,26.66
2022-07-30T13:31:43.190Z,26.50
2022-07-30T13:36:48.766Z,26.63
2022-07-30T13:41:52.871Z,26.78
2022-07-30T13:47:01.371Z,26.10
2022-07-30T13:52:05.672Z,26.28
2022-07-30T13:57:08.956Z,26.12
2022-07-30T14:02:12.578Z,25.74
2022-07-30T14:07:16.511Z,25.58
2022-07-30T14:12:20.114Z,25.26
2022-07-30T14:17:23.728Z,24.92
2022-07-30T14:22:28.066Z,24.69
2022-07-30T14:27:31.624Z,24.47
2022-07-30T14:32:35.253Z,24.53
2022-07-30T14:37:39.684Z,24.59
2022-07-30T14:42:44.118Z,25.31
2022-07-30T14:47:48.491Z,25.37
2022-07-30T14:52:52.942Z,25.78
2022-07-30T14:57:57.551Z,26.37
2022-07-30T15:03:01.225Z,26.38
2022-07-30T15:08:04.505Z,26.45
2022-07-30T15:13:07.851Z,26.75
2022-07-30T15:18:12.053Z,26.18
2022-07-30T15:23:15.461Z,26.18
2022-07-30T15:28:19.850Z,25.75
2022-07-30T15:33:23.091Z,25.39
2022-07-30T15:38:27.698Z,25.24
2022-07-30T15:43:31.341Z,25.72
2022-07-30T15:48:34.946Z,26.24
2022-07-30T15:53:38.593Z,26.18
2022-07-30T15:58:43.664Z,26.42
2022-07-30T16:03:47.481Z,26.48
2022-07-30T16:08:50.729Z,26.44
2022-07-30T16:13:54.106Z,26.33
2022-07-30T16:18:57.323Z,26.30
2022-07-30T16:24:00.913Z,26.33
2022-07-30T16:29:04.613Z,26.32
2022-07-30T16:34:08.084Z,25.98
2022-07-30T16:39:11.328Z,25.66
2022-07-30T16:44:15.973Z,25.56
2022-07-30T16:49:21.682Z,24.95
2022-07-30T16:54:25.087Z,25.05
2022-07-30T16:59:30.367Z,25.13
2022-07-30T17:04:35.114Z,24.72
2022-07-30T17:09:39.177Z,24.43
2022-07-30T17:14:42.844Z,24.30
2022-07-30T17:19:46.588Z,23.64
2022-07-30T17:24:50.529Z,23.56
2022-07-30T17:29:53.807Z,23.32
2022-07-30T17:34:57.534Z,23.30
2022-07-30T17:40:26.709Z,23.36
2022-07-30T17:45:25.852Z,23.51
2022-07-30T17:50:29.475Z,23.56
2022-07-30T17:55:35.390Z,23.30
2022-07-30T18:00:39.031Z,23.23
2022-07-30T18:05:42.608Z,23.11
2022-07-30T18:10:46.434Z,23.04
2022-07-30T18:15:50.080Z,22.77
2022-07-30T18:20:53.694Z,22.48
2022-07-30T18:25:57.335Z,22.35
2022-07-30T18:31:00.918Z,22.37
2022-07-30T18:36:05.329Z,20.48
2022-07-30T18:41:09.021Z,19.80
2022-07-30T18:46:12.522Z,19.63
2022-07-30T18:51:16.389Z,19.53
2022-07-30T18:56:20.471Z,19.43
2022-07-30T19:01:24.555Z,19.39
2022-07-30T19:06:27.818Z,19.38
2022-07-30T19:11:31.107Z,19.42
2022-07-30T19:16:34.472Z,19.47
2022-07-30T19:21:39.772Z,19.57
2022-07-30T19:26:43.334Z,19.21
2022-07-30T19:31:46.937Z,18.93
2022-07-30T19:36:50.522Z,18.84
2022-07-30T19:41:54.651Z,18.86
2022-07-30T19:47:00.089Z,18.97
2022-07-30T19:52:17.590Z,19.10
2022-07-30T19:57:52.984Z,19.29
2022-07-30T20:02:50.473Z,19.92
2022-07-30T20:07:54.171Z,20.00
2022-07-30T20:12:59.350Z,19.89
2022-07-30T20:18:03.256Z,20.15
2022-07-30T20:23:06.805Z,20.10
2022-07-30T20:28:10.177Z,20.33
2022-07-30T20:33:13.481Z,20.31
2022-07-30T20:38:16.878Z,20.26
2022-07-30T20:43:20.212Z,20.44
2022-07-30T20:48:26.035Z,20.44
2022-07-30T20:53:33.430Z,20.22
2022-07-30T20:58:40.161Z,20.18
2022-07-30T21:03:47.757Z,20.12
2022-07-30T21:08:52.384Z,20.14
2022-07-30T21:13:55.766Z,19.88
2022-07-30T21:18:59.050Z,19.89
2022-07-30T21:24:02.282Z,19.11
2022-07-30T21:29:07.991Z,18.73
2022-07-30T21:34:11.283Z,18.56
2022-07-30T21:39:15.042Z,18.37
2022-07-30T21:44:18.295Z,18.50
2022-07-30T21:49:21.733Z,18.24
2022-07-30T21:54:28.591Z,18.10
2022-07-30T21:59:33.815Z,18.01
2022-07-30T22:04:37.096Z,18.11
2022-07-30T22:09:41.411Z,18.88
2022-07-30T22:14:44.650Z,18.71
2022-07-30T22:19:50.200Z,18.95
2022-07-30T22:24:55.100Z,18.94
2022-07-30T22:30:01.140Z,19.39
2022-07-30T22:35:04.406Z,19.00
2022-07-30T22:40:08.059Z,19.30
2022-07-30T22:45:11.943Z,19.48
2022-07-30T22:50:17.601Z,19.37
2022-07-30T22:55:27.786Z,19.25
2022-07-30T23:00:33.201Z,19.36
2022-07-30T23:05:37.007Z,19.16
2022-07-30T23:10:43.686Z,18.59
2022-07-30T23:15:47.863Z,18.45
2022-07-30T23:20:51.786Z,19.18
2022-07-30T23:25:55.738Z,18.81
2022-07-30T23:30:59.843Z,18.52
2022-07-30T23:36:04.555Z,18.18
2022-07-30T23:41:08.302Z,17.96
2022-07-30T23:46:11.561Z,17.69
2022-07-30T23:51:15.544Z,17.52
2022-07-30T23:56:19.274Z,17.44
